sensor_id;sensor_type;location;lat;lon;timestamp;P1;durP1;ratioP1;P2;durP2;ratioP2
37931;SDS011;23758;42.640;23.302;2023-07-30T00:01:40;2.38;;;2.28;;
37931;SDS011;23758;42.640;23.302;2023-07-30T00:04:05;2.30;;;2.20;;
37931;SDS011;23758;42.640;23.302;2023-07-30T00:06:30;2.35;;;2.17;;
37931;SDS011;23758;42.640;23.302;2023-07-30T00:08:56;2.25;;;2.15;;
37931;SDS011;23758;42.640;23.302;2023-07-30T00:11:21;2.03;;;1.92;;
37931;SDS011;23758;42.640;23.302;2023-07-30T00:13:47;2.10;;;2.00;;
37931;SDS011;23758;42.640;23.302;2023-07-30T00:16:12;2.20;;;2.10;;
37931;SDS011;23758;42.640;23.302;2023-07-30T00:18:38;2.20;;;2.10;;
37931;SDS011;23758;42.640;23.302;2023-07-30T00:21:04;2.25;;;2.15;;
37931;SDS011;23758;42.640;23.302;2023-07-30T00:23:29;2.17;;;2.08;;
37931;SDS011;23758;42.640;23.302;2023-07-30T00:25:54;2.10;;;2.00;;
37931;SDS011;23758;42.640;23.302;2023-07-30T00:28:20;2.15;;;2.05;;
37931;SDS011;23758;42.640;23.302;2023-07-30T00:30:46;2.15;;;2.05;;
37931;SDS011;23758;42.640;23.302;2023-07-30T00:33:11;2.30;;;2.20;;
37931;SDS011;23758;42.640;23.302;2023-07-30T00:35:37;2.28;;;2.17;;
37931;SDS011;23758;42.640;23.302;2023-07-30T00:38:02;2.20;;;2.10;;
37931;SDS011;23758;42.640;23.302;2023-07-30T00:40:28;2.30;;;2.20;;
37931;SDS011;23758;42.640;23.302;2023-07-30T00:42:53;2.13;;;2.03;;
37931;SDS011;23758;42.640;23.302;2023-07-30T00:45:19;2.40;;;2.30;;
37931;SDS011;23758;42.640;23.302;2023-07-30T00:47:44;2.30;;;2.20;;
37931;SDS011;23758;42.640;23.302;2023-07-30T00:50:10;2.60;;;2.40;;
37931;SDS011;23758;42.640;23.302;2023-07-30T00:52:36;2.50;;;2.30;;
37931;SDS011;23758;42.640;23.302;2023-07-30T00:55:02;2.40;;;2.30;;
37931;SDS011;23758;42.640;23.302;2023-07-30T00:57:28;2.65;;;2.45;;
37931;SDS011;23758;42.640;23.302;2023-07-30T00:59:55;2.20;;;2.10;;
37931;SDS011;23758;42.640;23.302;2023-07-30T01:02:21;2.30;;;2.20;;
37931;SDS011;23758;42.640;23.302;2023-07-30T01:04:46;2.40;;;2.30;;
37931;SDS011;23758;42.640;23.302;2023-07-30T01:07:12;2.20;;;2.10;;
37931;SDS011;23758;42.640;23.302;2023-07-30T01:09:37;2.28;;;2.17;;
37931;SDS011;23758;42.640;23.302;2023-07-30T01:12:03;2.20;;;2.10;;
37931;SDS011;23758;42.640;23.302;2023-07-30T01:14:30;2.58;;;2.38;;
37931;SDS011;23758;42.640;23.302;2023-07-30T01:16:56;2.35;;;2.25;;
37931;SDS011;23758;42.640;23.302;2023-07-30T01:19:22;2.60;;;2.40;;
37931;SDS011;23758;42.640;23.302;2023-07-30T01:21:47;2.30;;;2.20;;
37931;SDS011;23758;42.640;23.302;2023-07-30T01:24:13;2.20;;;2.10;;
37931;SDS011;23758;42.640;23.302;2023-07-30T01:26:46;2.20;;;2.10;;
37931;SDS011;23758;42.640;23.302;2023-07-30T01:32:04;2.40;;;2.30;;
37931;SDS011;23758;42.640;23.302;2023-07-30T01:34:30;2.30;;;2.20;;
37931;SDS011;23758;42.640;23.302;2023-07-30T01:37:00;2.28;;;2.17;;
37931;SDS011;23758;42.640;23.302;2023-07-30T01:39:26;3.25;;;2.50;;
37931;SDS011;23758;42.640;23.302;2023-07-30T01:41:55;2.22;;;2.13;;
37931;SDS011;23758;42.640;23.302;2023-07-30T01:44:20;2.58;;;2.30;;
37931;SDS011;23758;42.640;23.302;2023-07-30T01:46:46;2.38;;;2.17;;
37931;SDS011;23758;42.640;23.302;2023-07-30T01:49:11;2.25;;;2.15;;
37931;SDS011;23758;42.640;23.302;2023-07-30T01:51:37;2.10;;;2.00;;
37931;SDS011;23758;42.640;23.302;2023-07-30T01:54:02;2.40;;;2.30;;
37931;SDS011;23758;42.640;23.302;2023-07-30T01:56:28;4.50;;;3.15;;
37931;SDS011;23758;42.640;23.302;2023-07-30T01:58:53;2.28;;;2.17;;
37931;SDS011;23758;42.640;23.302;2023-07-30T02:01:19;2.60;;;2.40;;
37931;SDS011;23758;42.640;23.302;2023-07-30T02:03:45;2.22;;;2.13;;
37931;SDS011;23758;42.640;23.302;2023-07-30T02:06:10;2.28;;;2.17;;
37931;SDS011;23758;42.640;23.302;2023-07-30T02:08:36;2.67;;;2.47;;
37931;SDS011;23758;42.640;23.302;2023-07-30T02:11:02;2.40;;;2.30;;
37931;SDS011;23758;42.640;23.302;2023-07-30T02:13:27;2.30;;;2.20;;
37931;SDS011;23758;42.640;23.302;2023-07-30T02:15:52;2.60;;;2.40;;
37931;SDS011;23758;42.640;23.302;2023-07-30T02:18:18;2.38;;;2.28;;
37931;SDS011;23758;42.640;23.302;2023-07-30T02:20:44;2.40;;;2.30;;
37931;SDS011;23758;42.640;23.302;2023-07-30T02:23:09;2.80;;;2.60;;
37931;SDS011;23758;42.640;23.302;2023-07-30T02:25:35;2.30;;;2.20;;
37931;SDS011;23758;42.640;23.302;2023-07-30T02:28:00;2.30;;;2.20;;
37931;SDS011;23758;42.640;23.302;2023-07-30T02:30:26;2.35;;;2.25;;
37931;SDS011;23758;42.640;23.302;2023-07-30T02:32:52;2.45;;;2.35;;
37931;SDS011;23758;42.640;23.302;2023-07-30T02:35:18;2.40;;;2.30;;
37931;SDS011;23758;42.640;23.302;2023-07-30T02:37:43;2.33;;;2.22;;
37931;SDS011;23758;42.640;23.302;2023-07-30T02:40:09;2.35;;;2.25;;
37931;SDS011;23758;42.640;23.302;2023-07-30T02:42:35;2.55;;;2.35;;
37931;SDS011;23758;42.640;23.302;2023-07-30T02:45:00;2.47;;;2.28;;
37931;SDS011;23758;42.640;23.302;2023-07-30T02:47:26;2.30;;;2.20;;
37931;SDS011;23758;42.640;23.302;2023-07-30T02:49:51;2.35;;;2.25;;
37931;SDS011;23758;42.640;23.302;2023-07-30T02:52:17;2.30;;;2.20;;
37931;SDS011;23758;42.640;23.302;2023-07-30T02:54:42;2.30;;;2.20;;
37931;SDS011;23758;42.640;23.302;2023-07-30T02:57:07;2.42;;;2.33;;
37931;SDS011;23758;42.640;23.302;2023-07-30T02:59:33;2.80;;;2.60;;
37931;SDS011;23758;42.640;23.302;2023-07-30T03:02:02;2.40;;;2.30;;
37931;SDS011;23758;42.640;23.302;2023-07-30T03:04:30;2.30;;;2.20;;
37931;SDS011;23758;42.640;23.302;2023-07-30T03:06:56;2.53;;;2.33;;
37931;SDS011;23758;42.640;23.302;2023-07-30T03:09:21;2.30;;;2.20;;
37931;SDS011;23758;42.640;23.302;2023-07-30T03:11:47;2.55;;;2.40;;
37931;SDS011;23758;42.640;23.302;2023-07-30T03:14:14;2.30;;;2.20;;
37931;SDS011;23758;42.640;23.302;2023-07-30T03:16:39;2.33;;;2.22;;
37931;SDS011;23758;42.640;23.302;2023-07-30T03:19:04;2.40;;;2.30;;
37931;SDS011;23758;42.640;23.302;2023-07-30T03:21:30;2.40;;;2.30;;
37931;SDS011;23758;42.640;23.302;2023-07-30T03:23:55;2.20;;;2.10;;
37931;SDS011;23758;42.640;23.302;2023-07-30T03:26:21;2.40;;;2.30;;
37931;SDS011;23758;42.640;23.302;2023-07-30T03:28:46;2.30;;;2.20;;
37931;SDS011;23758;42.640;23.302;2023-07-30T03:31:12;2.30;;;2.20;;
37931;SDS011;23758;42.640;23.302;2023-07-30T03:33:37;3.08;;;2.70;;
37931;SDS011;23758;42.640;23.302;2023-07-30T03:36:04;2.35;;;2.25;;
37931;SDS011;23758;42.640;23.302;2023-07-30T03:38:30;2.70;;;2.50;;
37931;SDS011;23758;42.640;23.302;2023-07-30T03:40:55;2.70;;;2.50;;
37931;SDS011;23758;42.640;23.302;2023-07-30T03:43:21;3.00;;;2.80;;
37931;SDS011;23758;42.640;23.302;2023-07-30T03:45:46;2.90;;;2.70;;
37931;SDS011;23758;42.640;23.302;2023-07-30T03:48:13;2.78;;;2.58;;
37931;SDS011;23758;42.640;23.302;2023-07-30T03:50:39;2.72;;;2.53;;
37931;SDS011;23758;42.640;23.302;2023-07-30T03:53:04;2.85;;;2.65;;
37931;SDS011;23758;42.640;23.302;2023-07-30T03:55:30;2.58;;;2.40;;
37931;SDS011;23758;42.640;23.302;2023-07-30T03:57:55;2.30;;;2.20;;
37931;SDS011;23758;42.640;23.302;2023-07-30T04:00:21;2.80;;;2.60;;
37931;SDS011;23758;42.640;23.302;2023-07-30T04:02:46;2.53;;;2.40;;
37931;SDS011;23758;42.640;23.302;2023-07-30T04:05:11;2.92;;;2.72;;
37931;SDS011;23758;42.640;23.302;2023-07-30T04:07:37;3.08;;;2.88;;
37931;SDS011;23758;42.640;23.302;2023-07-30T04:10:02;3.22;;;3.03;;
37931;SDS011;23758;42.640;23.302;2023-07-30T04:12:28;3.42;;;3.22;;
37931;SDS011;23758;42.640;23.302;2023-07-30T04:14:53;3.58;;;3.38;;
37931;SDS011;23758;42.640;23.302;2023-07-30T04:17:19;3.42;;;3.22;;
37931;SDS011;23758;42.640;23.302;2023-07-30T04:19:44;4.10;;;3.80;;
37931;SDS011;23758;42.640;23.302;2023-07-30T04:22:10;3.85;;;3.55;;
37931;SDS011;23758;42.640;23.302;2023-07-30T04:24:35;3.60;;;3.40;;
37931;SDS011;23758;42.640;23.302;2023-07-30T04:27:01;3.80;;;3.60;;
37931;SDS011;23758;42.640;23.302;2023-07-30T04:29:26;4.10;;;3.80;;
37931;SDS011;23758;42.640;23.302;2023-07-30T04:31:51;4.47;;;4.18;;
37931;SDS011;23758;42.640;23.302;2023-07-30T04:34:17;3.20;;;3.00;;
37931;SDS011;23758;42.640;23.302;2023-07-30T04:36:42;2.22;;;2.13;;
37931;SDS011;23758;42.640;23.302;2023-07-30T04:39:08;2.00;;;1.90;;
37931;SDS011;23758;42.640;23.302;2023-07-30T04:41:33;2.00;;;1.90;;
37931;SDS011;23758;42.640;23.302;2023-07-30T04:43:59;1.98;;;1.88;;
37931;SDS011;23758;42.640;23.302;2023-07-30T04:46:24;2.20;;;2.10;;
37931;SDS011;23758;42.640;23.302;2023-07-30T04:48:50;2.10;;;2.00;;
37931;SDS011;23758;42.640;23.302;2023-07-30T04:51:16;2.00;;;1.90;;
37931;SDS011;23758;42.640;23.302;2023-07-30T04:53:41;1.80;;;1.70;;
37931;SDS011;23758;42.640;23.302;2023-07-30T04:56:07;1.70;;;1.60;;
37931;SDS011;23758;42.640;23.302;2023-07-30T04:58:32;2.05;;;1.92;;
37931;SDS011;23758;42.640;23.302;2023-07-30T05:00:58;1.77;;;1.50;;
37931;SDS011;23758;42.640;23.302;2023-07-30T05:03:23;1.35;;;1.33;;
37931;SDS011;23758;42.640;23.302;2023-07-30T05:05:48;1.58;;;1.48;;
37931;SDS011;23758;42.640;23.302;2023-07-30T05:08:14;2.10;;;2.00;;
37931;SDS011;23758;42.640;23.302;2023-07-30T05:10:39;1.67;;;1.58;;
37931;SDS011;23758;42.640;23.302;2023-07-30T05:13:05;1.40;;;1.30;;
37931;SDS011;23758;42.640;23.302;2023-07-30T05:15:30;1.35;;;1.25;;
37931;SDS011;23758;42.640;23.302;2023-07-30T05:17:56;1.50;;;1.40;;
37931;SDS011;23758;42.640;23.302;2023-07-30T05:20:21;1.05;;;1.05;;
37931;SDS011;23758;42.640;23.302;2023-07-30T05:22:46;0.90;;;0.90;;
37931;SDS011;23758;42.640;23.302;2023-07-30T05:25:12;0.80;;;0.80;;
37931;SDS011;23758;42.640;23.302;2023-07-30T05:27:37;0.90;;;0.90;;
37931;SDS011;23758;42.640;23.302;2023-07-30T05:30:03;1.33;;;1.23;;
37931;SDS011;23758;42.640;23.302;2023-07-30T05:32:29;0.90;;;0.90;;
37931;SDS011;23758;42.640;23.302;2023-07-30T05:34:54;0.90;;;0.90;;
37931;SDS011;23758;42.640;23.302;2023-07-30T05:37:20;1.00;;;1.00;;
37931;SDS011;23758;42.640;23.302;2023-07-30T05:39:45;1.10;;;1.10;;
37931;SDS011;23758;42.640;23.302;2023-07-30T05:42:11;1.30;;;1.20;;
37931;SDS011;23758;42.640;23.302;2023-07-30T05:44:36;1.35;;;1.25;;
37931;SDS011;23758;42.640;23.302;2023-07-30T05:47:02;1.42;;;1.33;;
37931;SDS011;23758;42.640;23.302;2023-07-30T05:49:27;1.45;;;1.35;;
37931;SDS011;23758;42.640;23.302;2023-07-30T05:51:53;1.60;;;1.50;;
37931;SDS011;23758;42.640;23.302;2023-07-30T05:54:18;1.70;;;1.60;;
37931;SDS011;23758;42.640;23.302;2023-07-30T05:56:44;1.58;;;1.48;;
37931;SDS011;23758;42.640;23.302;2023-07-30T05:59:09;1.40;;;1.30;;
37931;SDS011;23758;42.640;23.302;2023-07-30T06:01:35;1.40;;;1.30;;
37931;SDS011;23758;42.640;23.302;2023-07-30T06:04:00;1.50;;;1.40;;
37931;SDS011;23758;42.640;23.302;2023-07-30T06:06:26;1.60;;;1.50;;
37931;SDS011;23758;42.640;23.302;2023-07-30T06:08:54;1.92;;;1.75;;
37931;SDS011;23758;42.640;23.302;2023-07-30T06:11:20;1.50;;;1.40;;
37931;SDS011;23758;42.640;23.302;2023-07-30T06:13:46;1.80;;;1.70;;
37931;SDS011;23758;42.640;23.302;2023-07-30T06:16:11;1.50;;;1.40;;
37931;SDS011;23758;42.640;23.302;2023-07-30T06:18:36;1.58;;;1.48;;
37931;SDS011;23758;42.640;23.302;2023-07-30T06:21:02;1.50;;;1.40;;
37931;SDS011;23758;42.640;23.302;2023-07-30T06:23:27;1.77;;;1.67;;
37931;SDS011;23758;42.640;23.302;2023-07-30T06:25:53;1.60;;;1.50;;
37931;SDS011;23758;42.640;23.302;2023-07-30T06:28:18;1.60;;;1.50;;
37931;SDS011;23758;42.640;23.302;2023-07-30T06:30:44;1.60;;;1.50;;
37931;SDS011;23758;42.640;23.302;2023-07-30T06:33:09;1.60;;;1.50;;
37931;SDS011;23758;42.640;23.302;2023-07-30T06:35:35;1.75;;;1.65;;
37931;SDS011;23758;42.640;23.302;2023-07-30T06:38:00;1.80;;;1.70;;
37931;SDS011;23758;42.640;23.302;2023-07-30T06:40:26;1.60;;;1.50;;
37931;SDS011;23758;42.640;23.302;2023-07-30T06:42:52;1.75;;;1.65;;
37931;SDS011;23758;42.640;23.302;2023-07-30T06:45:17;1.60;;;1.50;;
37931;SDS011;23758;42.640;23.302;2023-07-30T06:47:43;1.50;;;1.40;;
37931;SDS011;23758;42.640;23.302;2023-07-30T06:50:09;1.58;;;1.48;;
37931;SDS011;23758;42.640;23.302;2023-07-30T06:52:35;1.45;;;1.35;;
37931;SDS011;23758;42.640;23.302;2023-07-30T06:55:01;1.45;;;1.35;;
37931;SDS011;23758;42.640;23.302;2023-07-30T06:57:30;1.65;;;1.55;;
37931;SDS011;23758;42.640;23.302;2023-07-30T06:59:55;10.52;;;1.52;;
37931;SDS011;23758;42.640;23.302;2023-07-30T07:02:21;2.15;;;1.95;;
37931;SDS011;23758;42.640;23.302;2023-07-30T07:04:47;1.73;;;1.63;;
37931;SDS011;23758;42.640;23.302;2023-07-30T07:07:12;1.50;;;1.40;;
37931;SDS011;23758;42.640;23.302;2023-07-30T07:09:38;1.85;;;1.63;;
37931;SDS011;23758;42.640;23.302;2023-07-30T07:12:03;1.60;;;1.50;;
37931;SDS011;23758;42.640;23.302;2023-07-30T07:14:29;1.50;;;1.40;;
37931;SDS011;23758;42.640;23.302;2023-07-30T07:16:55;1.50;;;1.40;;
37931;SDS011;23758;42.640;23.302;2023-07-30T07:19:23;1.65;;;1.55;;
37931;SDS011;23758;42.640;23.302;2023-07-30T07:21:48;1.50;;;1.40;;
37931;SDS011;23758;42.640;23.302;2023-07-30T07:24:14;1.50;;;1.40;;
37931;SDS011;23758;42.640;23.302;2023-07-30T07:26:40;1.70;;;1.60;;
37931;SDS011;23758;42.640;23.302;2023-07-30T07:29:05;1.50;;;1.40;;
37931;SDS011;23758;42.640;23.302;2023-07-30T07:31:31;1.60;;;1.50;;
37931;SDS011;23758;42.640;23.302;2023-07-30T07:33:56;1.60;;;1.50;;
37931;SDS011;23758;42.640;23.302;2023-07-30T07:36:22;1.83;;;1.55;;
37931;SDS011;23758;42.640;23.302;2023-07-30T07:38:47;1.50;;;1.40;;
37931;SDS011;23758;42.640;23.302;2023-07-30T07:41:16;1.55;;;1.45;;
37931;SDS011;23758;42.640;23.302;2023-07-30T07:43:45;1.55;;;1.45;;
37931;SDS011;23758;42.640;23.302;2023-07-30T07:46:11;1.40;;;1.30;;
37931;SDS011;23758;42.640;23.302;2023-07-30T07:48:40;1.40;;;1.30;;
37931;SDS011;23758;42.640;23.302;2023-07-30T07:51:06;1.20;;;1.20;;
37931;SDS011;23758;42.640;23.302;2023-07-30T07:53:31;1.20;;;1.17;;
37931;SDS011;23758;42.640;23.302;2023-07-30T07:55:57;1.20;;;1.20;;
37931;SDS011;23758;42.640;23.302;2023-07-30T07:58:22;1.10;;;1.10;;
37931;SDS011;23758;42.640;23.302;2023-07-30T08:00:48;1.20;;;1.20;;
37931;SDS011;23758;42.640;23.302;2023-07-30T08:03:13;1.67;;;1.50;;
37931;SDS011;23758;42.640;23.302;2023-07-30T08:05:39;1.10;;;1.10;;
37931;SDS011;23758;42.640;23.302;2023-07-30T08:08:04;1.45;;;1.35;;
37931;SDS011;23758;42.640;23.302;2023-07-30T08:10:30;1.00;;;1.00;;
37931;SDS011;23758;42.640;23.302;2023-07-30T08:12:55;1.30;;;1.20;;
37931;SDS011;23758;42.640;23.302;2023-07-30T08:15:21;1.33;;;1.23;;
37931;SDS011;23758;42.640;23.302;2023-07-30T08:17:46;1.00;;;1.00;;
37931;SDS011;23758;42.640;23.302;2023-07-30T08:20:12;1.02;;;1.02;;
37931;SDS011;23758;42.640;23.302;2023-07-30T08:22:37;1.00;;;1.00;;
37931;SDS011;23758;42.640;23.302;2023-07-30T08:25:03;1.00;;;1.00;;
37931;SDS011;23758;42.640;23.302;2023-07-30T08:27:29;0.90;;;0.90;;
37931;SDS011;23758;42.640;23.302;2023-07-30T08:29:55;1.00;;;1.00;;
37931;SDS011;23758;42.640;23.302;2023-07-30T08:32:20;0.90;;;0.90;;
37931;SDS011;23758;42.640;23.302;2023-07-30T08:34:46;0.90;;;0.90;;
37931;SDS011;23758;42.640;23.302;2023-07-30T08:37:12;0.95;;;0.90;;
37931;SDS011;23758;42.640;23.302;2023-07-30T08:39:37;0.90;;;0.90;;
37931;SDS011;23758;42.640;23.302;2023-07-30T08:42:03;0.93;;;0.93;;
37931;SDS011;23758;42.640;23.302;2023-07-30T08:44:29;0.90;;;0.90;;
37931;SDS011;23758;42.640;23.302;2023-07-30T08:46:54;0.90;;;0.90;;
37931;SDS011;23758;42.640;23.302;2023-07-30T08:49:20;0.93;;;0.93;;
37931;SDS011;23758;42.640;23.302;2023-07-30T08:51:45;1.00;;;1.00;;
37931;SDS011;23758;42.640;23.302;2023-07-30T08:54:13;1.00;;;1.00;;
37931;SDS011;23758;42.640;23.302;2023-07-30T08:56:39;0.90;;;0.90;;
37931;SDS011;23758;42.640;23.302;2023-07-30T08:59:04;0.90;;;0.90;;
37931;SDS011;23758;42.640;23.302;2023-07-30T09:01:30;0.90;;;0.90;;
37931;SDS011;23758;42.640;23.302;2023-07-30T09:06:27;0.90;;;0.90;;
37931;SDS011;23758;42.640;23.302;2023-07-30T09:08:53;0.90;;;0.90;;
37931;SDS011;23758;42.640;23.302;2023-07-30T09:11:19;1.20;;;1.10;;
37931;SDS011;23758;42.640;23.302;2023-07-30T09:13:45;1.10;;;1.05;;
37931;SDS011;23758;42.640;23.302;2023-07-30T09:16:11;1.10;;;1.08;;
37931;SDS011;23758;42.640;23.302;2023-07-30T09:18:45;1.25;;;1.15;;
37931;SDS011;23758;42.640;23.302;2023-07-30T09:21:11;0.90;;;0.90;;
37931;SDS011;23758;42.640;23.302;2023-07-30T09:23:44;0.93;;;0.80;;
37931;SDS011;23758;42.640;23.302;2023-07-30T09:26:11;0.80;;;0.80;;
37931;SDS011;23758;42.640;23.302;2023-07-30T09:28:37;0.80;;;0.80;;
37931;SDS011;23758;42.640;23.302;2023-07-30T09:31:04;0.80;;;0.80;;
37931;SDS011;23758;42.640;23.302;2023-07-30T09:33:33;0.73;;;0.73;;
37931;SDS011;23758;42.640;23.302;2023-07-30T09:36:03;0.80;;;0.80;;
37931;SDS011;23758;42.640;23.302;2023-07-30T09:38:29;0.80;;;0.80;;
37931;SDS011;23758;42.640;23.302;2023-07-30T09:41:01;1.00;;;1.00;;
37931;SDS011;23758;42.640;23.302;2023-07-30T09:43:33;0.80;;;0.80;;
37931;SDS011;23758;42.640;23.302;2023-07-30T09:46:03;0.80;;;0.80;;
37931;SDS011;23758;42.640;23.302;2023-07-30T09:48:33;0.70;;;0.70;;
37931;SDS011;23758;42.640;23.302;2023-07-30T09:51:00;0.90;;;0.90;;
37931;SDS011;23758;42.640;23.302;2023-07-30T09:53:31;0.80;;;0.80;;
37931;SDS011;23758;42.640;23.302;2023-07-30T09:56:03;0.82;;;0.82;;
37931;SDS011;23758;42.640;23.302;2023-07-30T09:58:29;0.90;;;0.90;;
37931;SDS011;23758;42.640;23.302;2023-07-30T10:00:58;0.80;;;0.80;;
37931;SDS011;23758;42.640;23.302;2023-07-30T10:03:27;0.80;;;0.80;;
37931;SDS011;23758;42.640;23.302;2023-07-30T10:05:56;0.80;;;0.80;;
37931;SDS011;23758;42.640;23.302;2023-07-30T10:08:29;0.80;;;0.80;;
37931;SDS011;23758;42.640;23.302;2023-07-30T10:10:57;0.68;;;0.68;;
37931;SDS011;23758;42.640;23.302;2023-07-30T10:13:24;0.85;;;0.85;;
37931;SDS011;23758;42.640;23.302;2023-07-30T10:15:50;0.80;;;0.80;;
37931;SDS011;23758;42.640;23.302;2023-07-30T10:18:17;1.23;;;1.13;;
37931;SDS011;23758;42.640;23.302;2023-07-30T10:20:45;0.70;;;0.70;;
37931;SDS011;23758;42.640;23.302;2023-07-30T10:23:18;0.70;;;0.70;;
37931;SDS011;23758;42.640;23.302;2023-07-30T10:25:48;3.80;;;1.00;;
37931;SDS011;23758;42.640;23.302;2023-07-30T10:30:56;0.80;;;0.80;;
37931;SDS011;23758;42.640;23.302;2023-07-30T10:33:22;0.70;;;0.70;;
37931;SDS011;23758;42.640;23.302;2023-07-30T10:35:48;0.80;;;0.80;;
37931;SDS011;23758;42.640;23.302;2023-07-30T10:43:48;1.00;;;1.00;;
37931;SDS011;23758;42.640;23.302;2023-07-30T10:48:42;0.80;;;0.80;;
37931;SDS011;23758;42.640;23.302;2023-07-30T10:51:09;0.88;;;0.80;;
37931;SDS011;23758;42.640;23.302;2023-07-30T10:53:35;0.80;;;0.80;;
37931;SDS011;23758;42.640;23.302;2023-07-30T10:56:02;0.70;;;0.70;;
37931;SDS011;23758;42.640;23.302;2023-07-30T10:58:33;1.45;;;1.17;;
37931;SDS011;23758;42.640;23.302;2023-07-30T11:01:03;1.95;;;0.93;;
37931;SDS011;23758;42.640;23.302;2023-07-30T11:03:29;0.88;;;0.88;;
37931;SDS011;23758;42.640;23.302;2023-07-30T11:05:56;0.98;;;0.98;;
37931;SDS011;23758;42.640;23.302;2023-07-30T11:08:38;1.10;;;1.00;;
37931;SDS011;23758;42.640;23.302;2023-07-30T11:11:06;0.85;;;0.85;;
37931;SDS011;23758;42.640;23.302;2023-07-30T11:13:39;9.32;;;1.30;;
37931;SDS011;23758;42.640;23.302;2023-07-30T11:16:06;0.98;;;0.95;;
37931;SDS011;23758;42.640;23.302;2023-07-30T11:18:32;0.80;;;0.80;;
37931;SDS011;23758;42.640;23.302;2023-07-30T11:21:03;1.42;;;1.33;;
37931;SDS011;23758;42.640;23.302;2023-07-30T11:23:34;0.90;;;0.90;;
37931;SDS011;23758;42.640;23.302;2023-07-30T11:26:01;1.05;;;1.05;;
37931;SDS011;23758;42.640;23.302;2023-07-30T11:28:31;0.88;;;0.88;;
37931;SDS011;23758;42.640;23.302;2023-07-30T11:30:58;0.80;;;0.80;;
37931;SDS011;23758;42.640;23.302;2023-07-30T11:33:27;0.85;;;0.85;;
37931;SDS011;23758;42.640;23.302;2023-07-30T11:35:54;1.00;;;1.00;;
37931;SDS011;23758;42.640;23.302;2023-07-30T11:38:21;0.80;;;0.80;;
37931;SDS011;23758;42.640;23.302;2023-07-30T11:40:50;1.00;;;0.98;;
37931;SDS011;23758;42.640;23.302;2023-07-30T11:43:16;0.80;;;0.80;;
37931;SDS011;23758;42.640;23.302;2023-07-30T11:45:42;1.00;;;1.00;;
37931;SDS011;23758;42.640;23.302;2023-07-30T11:48:10;0.85;;;0.85;;
37931;SDS011;23758;42.640;23.302;2023-07-30T11:51:17;0.75;;;0.75;;
37931;SDS011;23758;42.640;23.302;2023-07-30T11:53:44;0.90;;;0.90;;
37931;SDS011;23758;42.640;23.302;2023-07-30T11:58:43;1.08;;;1.08;;
37931;SDS011;23758;42.640;23.302;2023-07-30T12:01:09;2.10;;;1.15;;
37931;SDS011;23758;42.640;23.302;2023-07-30T12:03:34;0.80;;;0.80;;
37931;SDS011;23758;42.640;23.302;2023-07-30T12:06:04;0.80;;;0.80;;
37931;SDS011;23758;42.640;23.302;2023-07-30T12:08:30;1.08;;;0.95;;
37931;SDS011;23758;42.640;23.302;2023-07-30T12:10:56;0.80;;;0.80;;
37931;SDS011;23758;42.640;23.302;2023-07-30T12:13:28;1.13;;;1.02;;
37931;SDS011;23758;42.640;23.302;2023-07-30T12:15:54;0.77;;;0.77;;
37931;SDS011;23758;42.640;23.302;2023-07-30T12:18:20;1.17;;;0.80;;
37931;SDS011;23758;42.640;23.302;2023-07-30T12:20:46;0.80;;;0.80;;
37931;SDS011;23758;42.640;23.302;2023-07-30T12:23:12;1.35;;;1.20;;
37931;SDS011;23758;42.640;23.302;2023-07-30T12:25:38;1.20;;;0.90;;
37931;SDS011;23758;42.640;23.302;2023-07-30T12:28:04;1.00;;;0.80;;
37931;SDS011;23758;42.640;23.302;2023-07-30T12:30:30;1.00;;;1.00;;
37931;SDS011;23758;42.640;23.302;2023-07-30T12:32:56;0.98;;;0.98;;
37931;SDS011;23758;42.640;23.302;2023-07-30T12:35:21;2.25;;;1.15;;
37931;SDS011;23758;42.640;23.302;2023-07-30T12:37:47;0.80;;;0.80;;
37931;SDS011;23758;42.640;23.302;2023-07-30T12:40:12;0.77;;;0.77;;
37931;SDS011;23758;42.640;23.302;2023-07-30T12:42:38;0.80;;;0.80;;
37931;SDS011;23758;42.640;23.302;2023-07-30T12:45:04;0.90;;;0.90;;
37931;SDS011;23758;42.640;23.302;2023-07-30T12:47:29;0.77;;;0.77;;
37931;SDS011;23758;42.640;23.302;2023-07-30T12:49:55;0.90;;;0.90;;
37931;SDS011;23758;42.640;23.302;2023-07-30T12:52:20;1.42;;;0.90;;
37931;SDS011;23758;42.640;23.302;2023-07-30T12:54:46;0.90;;;0.90;;
37931;SDS011;23758;42.640;23.302;2023-07-30T12:57:11;1.00;;;1.00;;
37931;SDS011;23758;42.640;23.302;2023-07-30T12:59:37;0.90;;;0.90;;
37931;SDS011;23758;42.640;23.302;2023-07-30T13:02:03;0.80;;;0.80;;
37931;SDS011;23758;42.640;23.302;2023-07-30T13:04:29;0.80;;;0.80;;
37931;SDS011;23758;42.640;23.302;2023-07-30T13:06:54;0.88;;;0.88;;
37931;SDS011;23758;42.640;23.302;2023-07-30T13:09:20;0.90;;;0.90;;
37931;SDS011;23758;42.640;23.302;2023-07-30T13:11:46;0.80;;;0.80;;
37931;SDS011;23758;42.640;23.302;2023-07-30T13:14:12;0.90;;;0.90;;
37931;SDS011;23758;42.640;23.302;2023-07-30T13:16:37;0.80;;;0.80;;
37931;SDS011;23758;42.640;23.302;2023-07-30T13:19:03;2.63;;;1.77;;
37931;SDS011;23758;42.640;23.302;2023-07-30T13:21:28;1.08;;;1.02;;
37931;SDS011;23758;42.640;23.302;2023-07-30T13:23:54;0.80;;;0.80;;
37931;SDS011;23758;42.640;23.302;2023-07-30T13:26:19;0.88;;;0.88;;
37931;SDS011;23758;42.640;23.302;2023-07-30T13:28:45;2.90;;;1.23;;
37931;SDS011;23758;42.640;23.302;2023-07-30T13:31:11;1.10;;;1.05;;
37931;SDS011;23758;42.640;23.302;2023-07-30T13:33:36;1.20;;;1.10;;
37931;SDS011;23758;42.640;23.302;2023-07-30T13:36:02;0.85;;;0.85;;
37931;SDS011;23758;42.640;23.302;2023-07-30T13:38:29;0.85;;;0.85;;
37931;SDS011;23758;42.640;23.302;2023-07-30T13:40:54;0.90;;;0.90;;
37931;SDS011;23758;42.640;23.302;2023-07-30T13:43:20;0.70;;;0.70;;
37931;SDS011;23758;42.640;23.302;2023-07-30T13:45:45;0.80;;;0.80;;
37931;SDS011;23758;42.640;23.302;2023-07-30T13:48:11;0.88;;;0.88;;
37931;SDS011;23758;42.640;23.302;2023-07-30T13:50:36;0.90;;;0.90;;
37931;SDS011;23758;42.640;23.302;2023-07-30T13:53:02;0.90;;;0.90;;
37931;SDS011;23758;42.640;23.302;2023-07-30T13:55:27;0.95;;;0.95;;
37931;SDS011;23758;42.640;23.302;2023-07-30T13:57:53;0.82;;;0.82;;
37931;SDS011;23758;42.640;23.302;2023-07-30T14:00:18;1.13;;;1.10;;
37931;SDS011;23758;42.640;23.302;2023-07-30T14:02:44;0.93;;;0.93;;
37931;SDS011;23758;42.640;23.302;2023-07-30T14:05:10;0.93;;;0.93;;
37931;SDS011;23758;42.640;23.302;2023-07-30T14:07:35;0.70;;;0.70;;
37931;SDS011;23758;42.640;23.302;2023-07-30T14:10:01;1.00;;;1.00;;
37931;SDS011;23758;42.640;23.302;2023-07-30T14:12:26;0.98;;;0.98;;
37931;SDS011;23758;42.640;23.302;2023-07-30T14:14:52;1.17;;;0.98;;
37931;SDS011;23758;42.640;23.302;2023-07-30T14:17:17;0.90;;;0.90;;
37931;SDS011;23758;42.640;23.302;2023-07-30T14:19:43;0.88;;;0.88;;
37931;SDS011;23758;42.640;23.302;2023-07-30T14:22:08;0.90;;;0.90;;
37931;SDS011;23758;42.640;23.302;2023-07-30T14:24:34;0.90;;;0.90;;
37931;SDS011;23758;42.640;23.302;2023-07-30T14:27:00;0.90;;;0.90;;
37931;SDS011;23758;42.640;23.302;2023-07-30T14:29:26;0.77;;;0.77;;
37931;SDS011;23758;42.640;23.302;2023-07-30T14:31:51;0.88;;;0.88;;
37931;SDS011;23758;42.640;23.302;2023-07-30T14:34:17;2.75;;;1.42;;
37931;SDS011;23758;42.640;23.302;2023-07-30T14:36:42;1.20;;;1.10;;
37931;SDS011;23758;42.640;23.302;2023-07-30T14:39:08;0.98;;;0.98;;
37931;SDS011;23758;42.640;23.302;2023-07-30T14:41:33;1.17;;;1.02;;
37931;SDS011;23758;42.640;23.302;2023-07-30T14:43:59;0.90;;;0.90;;
37931;SDS011;23758;42.640;23.302;2023-07-30T14:46:24;0.88;;;0.88;;